createdAt,value
2023-01-31T00:05:23.721Z,-1.49
2023-01-31T00:10:52.010Z,-1.45
2023-01-31T00:16:22.264Z,-1.58
2023-01-31T00:21:48.818Z,-1.67
2023-01-31T00:27:15.704Z,-1.67
2023-01-31T00:32:40.047Z,-1.69
2023-01-31T00:38:10.714Z,-1.64
2023-01-31T00:43:34.728Z,-1.83
2023-01-31T00:49:01.443Z,-1.90
2023-01-31T00:54:31.300Z,-1.88
2023-01-31T00:59:55.950Z,-1.80
2023-01-31T01:05:19.712Z,-1.70
2023-01-31T01:10:46.108Z,-1.76
2023-01-31T01:16:16.761Z,-1.59
2023-01-31T01:21:46.794Z,-1.62
2023-01-31T01:27:17.328Z,-1.51
2023-01-31T01:32:47.733Z,-1.62
2023-01-31T01:38:16.898Z,-1.63
2023-01-31T01:43:49.689Z,-1.68
2023-01-31T01:49:25.258Z,-1.74
2023-01-31T01:54:56.800Z,-1.73
2023-01-31T02:00:30.993Z,-1.73
2023-01-31T02:06:03.717Z,-1.71
2023-01-31T02:11:33.426Z,-1.63
2023-01-31T02:17:04.004Z,-1.63
2023-01-31T02:22:38.244Z,-1.58
2023-01-31T02:28:40.728Z,-1.60
2023-01-31T02:34:17.376Z,-1.77
2023-01-31T02:39:57.797Z,-1.76
2023-01-31T02:45:37.201Z,-1.70
2023-01-31T02:51:14.617Z,-1.70
2023-01-31T02:56:47.472Z,-1.60
2023-01-31T03:02:17.239Z,-1.61
2023-01-31T03:07:51.220Z,-1.70
2023-01-31T03:13:32.978Z,-1.64
2023-01-31T03:19:14.098Z,-1.86
2023-01-31T03:24:47.363Z,-1.85
2023-01-31T03:30:22.258Z,-1.82
2023-01-31T03:35:57.765Z,-1.75
2023-01-31T03:41:36.025Z,-1.69
2023-01-31T03:47:11.204Z,-1.71
2023-01-31T03:52:47.301Z,-1.72
2023-01-31T03:58:20.817Z,-1.81
2023-01-31T04:03:54.714Z,-2.00
2023-01-31T08:05:19.118Z,-0.94
2023-01-31T08:10:44.732Z,-0.72
2023-01-31T08:16:11.111Z,-0.79
2023-01-31T08:21:37.284Z,-0.74
2023-01-31T08:27:06.155Z,-0.72
2023-01-31T08:32:29.324Z,-0.70
2023-01-31T08:38:03.716Z,-0.67
2023-01-31T08:43:37.283Z,-0.63
2023-01-31T08:49:09.238Z,-0.70
2023-01-31T08:54:39.929Z,-0.64
2023-01-31T09:00:04.695Z,-0.64
2023-01-31T09:05:28.969Z,-0.52
2023-01-31T09:11:00.723Z,-0.57
2023-01-31T09:16:26.465Z,-0.56
2023-01-31T09:21:55.446Z,-0.51
2023-01-31T09:27:20.020Z,-0.20
2023-01-31T09:32:46.151Z,-0.11
2023-01-31T09:38:12.809Z,-0.12
2023-01-31T09:43:49.407Z,-0.05
2023-01-31T09:49:20.364Z,0.12
2023-01-31T09:54:49.525Z,0.35
2023-01-31T10:00:27.119Z,0.37
2023-01-31T10:06:00.710Z,0.36
2023-01-31T10:11:31.909Z,0.23
2023-01-31T10:17:11.464Z,0.18
2023-01-31T10:22:45.642Z,0.22
2023-01-31T10:28:19.102Z,0.35
2023-01-31T10:33:55.093Z,0.42
2023-01-31T10:39:27.770Z,0.74
2023-01-31T10:45:02.316Z,0.84
2023-01-31T10:50:39.999Z,0.75
2023-01-31T10:56:12.386Z,0.40
2023-01-31T11:01:42.241Z,0.30
2023-01-31T11:07:12.932Z,0.46
2023-01-31T11:12:52.985Z,0.69
2023-01-31T11:18:30.209Z,0.61
2023-01-31T11:24:04.947Z,0.56
2023-01-31T11:29:37.964Z,0.29
2023-01-31T11:35:24.425Z,0.27
2023-01-31T11:40:54.520Z,0.44
2023-01-31T11:46:22.986Z,0.46
2023-01-31T11:51:52.572Z,0.46
2023-01-31T11:57:27.335Z,0.66
2023-01-31T12:03:02.542Z,0.77
2023-01-31T12:08:33.084Z,0.75
2023-01-31T12:14:13.830Z,0.78
2023-01-31T12:20:14.273Z,0.57
2023-01-31T12:26:10.913Z,0.44
2023-01-31T12:31:55.335Z,0.41
2023-01-31T12:37:36.855Z,0.45
2023-01-31T12:43:15.448Z,0.28
2023-01-31T12:49:08.497Z,0.47
2023-01-31T12:54:52.583Z,0.33
2023-01-31T13:00:33.345Z,0.39
2023-01-31T16:58:49.877Z,-0.59
2023-01-31T17:04:20.473Z,-0.20
2023-01-31T17:09:45.022Z,0.03
2023-01-31T17:15:16.084Z,0.02
2023-01-31T17:20:42.228Z,0.19
2023-01-31T17:26:06.014Z,0.01
2023-01-31T17:31:31.638Z,0.04
2023-01-31T17:36:59.002Z,-0.29
2023-01-31T17:42:29.198Z,-0.29
2023-01-31T17:47:55.215Z,0.05
2023-01-31T17:53:22.915Z,-0.06
2023-01-31T17:58:45.079Z,-0.14
2023-01-31T18:04:15.413Z,0.00
2023-01-31T18:09:48.512Z,0.02
2023-01-31T18:15:18.935Z,-0.14
2023-01-31T18:20:49.431Z,-0.07
2023-01-31T18:26:18.370Z,-0.08
2023-01-31T18:31:43.251Z,0.08
2023-01-31T18:37:20.085Z,0.05
2023-01-31T18:42:43.018Z,0.18
2023-01-31T18:48:12.220Z,0.21
2023-01-31T18:53:44.164Z,0.19
2023-01-31T18:59:07.225Z,0.16
2023-01-31T19:04:36.264Z,0.16
2023-01-31T19:10:06.836Z,0.32
2023-01-31T19:15:35.756Z,0.27
2023-01-31T19:21:14.885Z,0.40
2023-01-31T19:26:45.753Z,0.36
2023-01-31T19:32:14.746Z,0.40
2023-01-31T19:37:44.002Z,0.36
2023-01-31T19:43:14.820Z,0.30
2023-01-31T19:48:38.944Z,0.27
2023-01-31T19:54:06.514Z,0.27
2023-01-31T19:59:37.114Z,0.18
2023-01-31T20:05:06.586Z,0.03
2023-01-31T20:10:36.422Z,0.12
2023-01-31T20:16:05.994Z,0.29
2023-01-31T20:21:30.843Z,0.06
2023-01-31T20:27:01.360Z,0.17
2023-01-31T20:32:31.052Z,-0.04
2023-01-31T20:37:59.955Z,0.08
2023-01-31T20:43:24.934Z,0.23
2023-01-31T20:48:49.096Z,0.42
2023-01-31T20:54:11.659Z,0.37
2023-01-31T20:59:35.984Z,0.46
2023-01-31T21:05:06.174Z,0.47
2023-01-31T21:10:34.647Z,0.50
2023-01-31T21:16:00.110Z,0.23
2023-01-31T21:21:25.327Z,0.39
2023-01-31T21:26:53.846Z,0.47
2023-01-31T21:32:23.118Z,0.43
2023-01-31T21:37:53.557Z,0.42
2023-01-31T21:43:21.409Z,0.40
2023-01-31T21:48:49.836Z,0.12
2023-01-31T21:54:19.900Z,-0.02
2023-01-31T21:59:48.761Z,-0.02
2023-01-31T22:05:12.504Z,0.17
2023-01-31T22:10:37.976Z,0.26
2023-01-31T22:16:02.415Z,0.21
2023-01-31T22:21:32.730Z,0.38
2023-01-31T22:27:03.277Z,0.52
2023-01-31T22:32:31.884Z,0.68
2023-01-31T22:37:54.295Z,0.59
2023-01-31T22:43:23.825Z,0.41
2023-01-31T22:48:49.485Z,0.06
2023-01-31T22:54:19.196Z,0.08
2023-01-31T22:59:49.134Z,0.19
2023-01-31T23:05:13.712Z,0.32
2023-01-31T23:10:42.780Z,0.28
2023-01-31T23:16:09.047Z,0.26
2023-01-31T23:21:32.519Z,0.28
2023-01-31T23:26:56.473Z,0.43
2023-01-31T23:32:22.674Z,0.30
2023-01-31T23:37:46.108Z,0.29
2023-01-31T23:43:09.759Z,0.24
2023-01-31T23:48:35.687Z,0.35
2023-01-31T23:53:58.817Z,0.36
2023-01-31T23:59:21.837Z,0.35
